Airfield :
LOGIN :

Register | Disclaimer

   EN    FR    IT 

 










Legend :    VFR   Marginal VFR   IFR   Intensive IFR   Very Intensive IFR
Visi :
Ceiling :
>= 8 km
>= 3000ft
5 to 8 km
1000 to 3000 ft
1500m to 5 km
500 to 1000 ft
800 to 1500m
200 to 500 ft
< 800m
< 200 ft
Symbols :   Thunderstorms  Fog  Heavy snow  Heavy precipitations  Wind > 20 kt
SIGMETs :     Misc.  Thunderstorms  Icing  Turbulence  Mountain Waves  Volcanic Ashes






- Airport Elevation : 12 ft
- IATA code : CQF


LFAC - Calais

CURRENT METAR :
  • 151430Z AUTO 15006KT 9999 -RA FEW034/// SCT062/// OVC094/// ///CB 20/16 Q1008

EXPIRED METARs :
  • 151400Z AUTO 15006KT 9999 FEW030/// SCT054/// OVC100/// ///CB 21/16 Q1008
  • 151330Z AUTO 15005KT 9999 -RA FEW035/// BKN064/// BKN076/// ///CB 21/16 Q1008
  • 151300Z AUTO 15005KT 9999 ///TCU 22/15 Q1008
  • 151230Z AUTO 14008KT CAVOK 22/13 Q1008
  • 151200Z AUTO 14010KT 110V170 CAVOK 23/13 Q1008
  • 151130Z AUTO 15009KT 130V190 CAVOK 23/13 Q1009
  • 151100Z AUTO 15008KT 120V210 CAVOK 23/13 Q1009
  • 151030Z AUTO 15010KT 100V190 9999 NCD 24/14 Q1009
  • 151000Z AUTO 15008KT 120V180 9999 NCD 23/14 Q1010

TAF N/A
ATIS : +33 3 21 00 11 14



MET'MAP, your aeronautical weather chart ! - Copyright ORBIFLY December 2007 - Disclaimer

ORBIFLY MET'MAP TEAM :

Programming & Development : Alexandra Zaïnal
Original concept : Baudouin d'Aumeries
Technical & hardware support : Manuel Goepfert
Assistance : Marc-Olivier Méhu




SOURCES & CREDITS :

   NOAA